sensor_id;sensor_type;location;lat;lon;timestamp;pressure;altitude;pressure_sealevel;temperature;humidity
43147;BME280;28752;48.266;7.402;2023-02-19T00:00:27;100139.69;;;10.76;71.65
43147;BME280;28752;48.266;7.402;2023-02-19T00:02:52;100160.00;;;10.87;72.10
43147;BME280;28752;48.266;7.402;2023-02-19T00:05:20;100162.66;;;10.87;71.98
43147;BME280;28752;48.266;7.402;2023-02-19T00:07:45;100148.44;;;10.88;72.10
43147;BME280;28752;48.266;7.402;2023-02-19T00:10:10;100162.53;;;10.89;71.87
43147;BME280;28752;48.266;7.402;2023-02-19T00:12:36;100151.59;;;10.82;72.01
43147;BME280;28752;48.266;7.402;2023-02-19T00:15:01;100150.94;;;10.90;72.43
43147;BME280;28752;48.266;7.402;2023-02-19T00:17:26;100161.66;;;10.88;72.04
43147;BME280;28752;48.266;7.402;2023-02-19T00:19:52;100147.34;;;10.91;71.71
43147;BME280;28752;48.266;7.402;2023-02-19T00:22:17;100146.16;;;10.83;71.94
43147;BME280;28752;48.266;7.402;2023-02-19T00:24:42;100150.13;;;10.89;71.85
43147;BME280;28752;48.266;7.402;2023-02-19T00:27:08;100156.25;;;10.90;71.40
43147;BME280;28752;48.266;7.402;2023-02-19T00:29:33;100165.81;;;10.81;71.61
43147;BME280;28752;48.266;7.402;2023-02-19T00:31:59;100172.28;;;10.88;71.53
43147;BME280;28752;48.266;7.402;2023-02-19T00:34:24;100175.53;;;10.92;71.37
43147;BME280;28752;48.266;7.402;2023-02-19T00:36:49;100160.44;;;10.92;71.79
43147;BME280;28752;48.266;7.402;2023-02-19T00:39:15;100167.44;;;10.93;71.78
43147;BME280;28752;48.266;7.402;2023-02-19T00:41:43;100162.97;;;10.94;71.11
43147;BME280;28752;48.266;7.402;2023-02-19T00:44:10;100157.53;;;10.95;71.15
43147;BME280;28752;48.266;7.402;2023-02-19T00:46:38;100173.31;;;10.97;70.85
43147;BME280;28752;48.266;7.402;2023-02-19T00:49:05;100153.16;;;10.84;71.46
43147;BME280;28752;48.266;7.402;2023-02-19T00:51:33;100159.63;;;10.92;71.27
43147;BME280;28752;48.266;7.402;2023-02-19T00:53:59;100150.38;;;10.86;71.30
43147;BME280;28752;48.266;7.402;2023-02-19T00:56:24;100149.84;;;10.92;70.84
43147;BME280;28752;48.266;7.402;2023-02-19T00:58:50;100152.94;;;10.97;70.73
43147;BME280;28752;48.266;7.402;2023-02-19T01:01:16;100148.13;;;10.81;71.45
43147;BME280;28752;48.266;7.402;2023-02-19T01:03:42;100123.81;;;10.76;71.77
43147;BME280;28752;48.266;7.402;2023-02-19T01:06:09;100133.31;;;10.79;71.52
43147;BME280;28752;48.266;7.402;2023-02-19T01:08:35;100150.03;;;10.79;71.44
43147;BME280;28752;48.266;7.402;2023-02-19T01:11:01;100144.03;;;10.77;71.80
43147;BME280;28752;48.266;7.402;2023-02-19T01:13:27;100139.44;;;10.79;71.73
43147;BME280;28752;48.266;7.402;2023-02-19T01:16:14;100143.06;;;10.78;71.53
43147;BME280;28752;48.266;7.402;2023-02-19T01:18:40;100122.06;;;10.65;71.70
43147;BME280;28752;48.266;7.402;2023-02-19T01:21:08;100141.09;;;10.71;71.95
43147;BME280;28752;48.266;7.402;2023-02-19T01:23:34;100141.84;;;10.61;72.29
43147;BME280;28752;48.266;7.402;2023-02-19T01:26:03;100139.78;;;10.65;72.46
43147;BME280;28752;48.266;7.402;2023-02-19T01:28:29;100133.25;;;10.69;72.12
43147;BME280;28752;48.266;7.402;2023-02-19T01:30:54;100135.84;;;10.59;72.58
43147;BME280;28752;48.266;7.402;2023-02-19T01:33:20;100129.88;;;10.67;72.35
43147;BME280;28752;48.266;7.402;2023-02-19T01:35:45;100133.78;;;10.63;72.65
43147;BME280;28752;48.266;7.402;2023-02-19T01:38:10;100139.13;;;10.52;72.64
43147;BME280;28752;48.266;7.402;2023-02-19T01:40:36;100149.69;;;10.63;72.44
43147;BME280;28752;48.266;7.402;2023-02-19T01:43:01;100152.34;;;10.52;72.73
43147;BME280;28752;48.266;7.402;2023-02-19T01:45:32;100148.50;;;10.56;72.86
43147;BME280;28752;48.266;7.402;2023-02-19T01:48:03;100149.19;;;10.58;72.76
43147;BME280;28752;48.266;7.402;2023-02-19T01:50:35;100150.66;;;10.51;73.20
43147;BME280;28752;48.266;7.402;2023-02-19T01:53:02;100147.91;;;10.52;72.90
43147;BME280;28752;48.266;7.402;2023-02-19T01:55:30;100136.22;;;10.55;73.04
43147;BME280;28752;48.266;7.402;2023-02-19T01:57:56;100128.88;;;10.58;72.54
43147;BME280;28752;48.266;7.402;2023-02-19T02:00:22;100139.34;;;10.60;73.30
43147;BME280;28752;48.266;7.402;2023-02-19T02:02:51;100137.78;;;10.57;73.49
43147;BME280;28752;48.266;7.402;2023-02-19T02:08:07;100161.59;;;10.57;73.31
43147;BME280;28752;48.266;7.402;2023-02-19T02:10:52;100156.47;;;10.44;73.67
43147;BME280;28752;48.266;7.402;2023-02-19T02:13:19;100159.09;;;10.56;73.80
43147;BME280;28752;48.266;7.402;2023-02-19T02:16:29;100155.47;;;10.57;74.56
43147;BME280;28752;48.266;7.402;2023-02-19T02:32:09;100129.69;;;9.94;81.39
43147;BME280;28752;48.266;7.402;2023-02-19T02:34:47;100118.03;;;9.85;82.04
43147;BME280;28752;48.266;7.402;2023-02-19T02:37:14;100104.28;;;9.70;82.48
43147;BME280;28752;48.266;7.402;2023-02-19T02:39:41;100103.91;;;9.64;83.20
43147;BME280;28752;48.266;7.402;2023-02-19T02:42:07;100092.00;;;9.69;82.95
43147;BME280;28752;48.266;7.402;2023-02-19T02:44:51;100068.34;;;9.56;83.13
43147;BME280;28752;48.266;7.402;2023-02-19T02:47:42;100088.16;;;9.62;83.41
43147;BME280;28752;48.266;7.402;2023-02-19T02:52:42;100090.56;;;9.65;83.27
43147;BME280;28752;48.266;7.402;2023-02-19T02:55:29;100078.53;;;9.72;83.04
43147;BME280;28752;48.266;7.402;2023-02-19T02:57:56;100081.13;;;9.84;82.68
43147;BME280;28752;48.266;7.402;2023-02-19T03:00:23;100068.91;;;9.83;82.57
43147;BME280;28752;48.266;7.402;2023-02-19T03:02:50;100095.47;;;9.81;83.03
43147;BME280;28752;48.266;7.402;2023-02-19T03:05:19;100099.44;;;9.75;83.48
43147;BME280;28752;48.266;7.402;2023-02-19T03:08:18;100096.56;;;9.78;83.43
43147;BME280;28752;48.266;7.402;2023-02-19T03:10:48;100095.34;;;9.83;83.12
43147;BME280;28752;48.266;7.402;2023-02-19T03:13:19;100103.28;;;9.83;83.02
43147;BME280;28752;48.266;7.402;2023-02-19T03:16:11;100091.00;;;9.82;82.95
43147;BME280;28752;48.266;7.402;2023-02-19T03:18:58;100090.75;;;9.85;82.83
43147;BME280;28752;48.266;7.402;2023-02-19T03:24:12;100093.63;;;9.93;82.36
43147;BME280;28752;48.266;7.402;2023-02-19T03:26:58;100093.63;;;9.93;81.67
43147;BME280;28752;48.266;7.402;2023-02-19T03:29:28;100095.41;;;9.92;81.71
43147;BME280;28752;48.266;7.402;2023-02-19T03:31:57;100092.78;;;9.92;81.45
43147;BME280;28752;48.266;7.402;2023-02-19T03:34:29;100087.09;;;9.97;80.87
43147;BME280;28752;48.266;7.402;2023-02-19T03:37:07;100088.44;;;9.91;80.85
43147;BME280;28752;48.266;7.402;2023-02-19T03:39:34;100101.34;;;9.85;81.68
43147;BME280;28752;48.266;7.402;2023-02-19T03:50:21;100111.28;;;10.04;81.88
43147;BME280;28752;48.266;7.402;2023-02-19T03:53:04;100114.56;;;9.85;83.72
43147;BME280;28752;48.266;7.402;2023-02-19T03:55:57;100129.25;;;9.77;85.09
43147;BME280;28752;48.266;7.402;2023-02-19T03:58:32;100131.38;;;9.84;84.60
43147;BME280;28752;48.266;7.402;2023-02-19T04:01:05;100124.31;;;9.73;86.00
43147;BME280;28752;48.266;7.402;2023-02-19T04:06:02;100120.16;;;9.70;87.33
43147;BME280;28752;48.266;7.402;2023-02-19T04:08:30;100115.00;;;9.46;88.88
43147;BME280;28752;48.266;7.402;2023-02-19T04:10:59;100125.72;;;9.45;89.75
43147;BME280;28752;48.266;7.402;2023-02-19T04:13:34;100118.50;;;9.35;90.15
43147;BME280;28752;48.266;7.402;2023-02-19T04:16:06;100118.00;;;9.53;89.16
43147;BME280;28752;48.266;7.402;2023-02-19T04:18:35;100118.72;;;9.43;89.62
43147;BME280;28752;48.266;7.402;2023-02-19T04:21:03;100124.59;;;9.47;88.80
43147;BME280;28752;48.266;7.402;2023-02-19T04:23:39;100128.91;;;9.59;87.91
43147;BME280;28752;48.266;7.402;2023-02-19T04:26:07;100128.22;;;9.46;88.41
43147;BME280;28752;48.266;7.402;2023-02-19T04:28:33;100135.44;;;9.55;88.32
43147;BME280;28752;48.266;7.402;2023-02-19T04:31:00;100139.84;;;9.55;88.90
43147;BME280;28752;48.266;7.402;2023-02-19T04:33:25;100141.06;;;9.39;88.86
43147;BME280;28752;48.266;7.402;2023-02-19T04:35:51;100141.06;;;9.39;88.77
43147;BME280;28752;48.266;7.402;2023-02-19T04:38:16;100153.34;;;9.40;88.63
43147;BME280;28752;48.266;7.402;2023-02-19T04:40:41;100147.47;;;9.37;88.48
43147;BME280;28752;48.266;7.402;2023-02-19T04:43:07;100162.22;;;9.39;89.41
43147;BME280;28752;48.266;7.402;2023-02-19T04:45:32;100162.34;;;9.38;89.29
43147;BME280;28752;48.266;7.402;2023-02-19T04:47:57;100167.16;;;9.33;89.69
43147;BME280;28752;48.266;7.402;2023-02-19T04:50:23;100178.09;;;9.28;89.92
43147;BME280;28752;48.266;7.402;2023-02-19T04:52:49;100182.28;;;9.31;89.77
43147;BME280;28752;48.266;7.402;2023-02-19T04:55:15;100185.66;;;9.33;90.18
43147;BME280;28752;48.266;7.402;2023-02-19T04:57:40;100178.78;;;9.30;90.14
43147;BME280;28752;48.266;7.402;2023-02-19T05:00:06;100185.03;;;9.18;90.50
43147;BME280;28752;48.266;7.402;2023-02-19T05:02:32;100171.81;;;9.18;90.74
43147;BME280;28752;48.266;7.402;2023-02-19T05:04:57;100195.25;;;9.11;92.40
43147;BME280;28752;48.266;7.402;2023-02-19T05:07:23;100198.72;;;9.23;91.83
43147;BME280;28752;48.266;7.402;2023-02-19T05:09:48;100200.66;;;9.10;92.57
43147;BME280;28752;48.266;7.402;2023-02-19T05:12:14;100200.53;;;9.22;91.40
43147;BME280;28752;48.266;7.402;2023-02-19T05:14:39;100212.56;;;9.27;91.01
43147;BME280;28752;48.266;7.402;2023-02-19T05:17:04;100222.53;;;9.34;90.49
43147;BME280;28752;48.266;7.402;2023-02-19T05:19:30;100210.03;;;9.25;90.74
43147;BME280;28752;48.266;7.402;2023-02-19T05:21:55;100221.59;;;9.35;90.71
43147;BME280;28752;48.266;7.402;2023-02-19T05:24:21;100215.78;;;9.30;90.47
43147;BME280;28752;48.266;7.402;2023-02-19T05:26:48;100224.59;;;9.31;90.82
43147;BME280;28752;48.266;7.402;2023-02-19T05:29:14;100226.31;;;9.07;92.32
43147;BME280;28752;48.266;7.402;2023-02-19T05:31:39;100232.84;;;9.26;90.84
43147;BME280;28752;48.266;7.402;2023-02-19T05:34:04;100225.25;;;9.21;91.28
43147;BME280;28752;48.266;7.402;2023-02-19T05:36:30;100227.66;;;9.24;91.18
43147;BME280;28752;48.266;7.402;2023-02-19T05:38:56;100233.47;;;9.30;90.44
43147;BME280;28752;48.266;7.402;2023-02-19T05:41:24;100240.19;;;9.34;90.77
43147;BME280;28752;48.266;7.402;2023-02-19T05:43:50;100239.56;;;9.30;90.71
43147;BME280;28752;48.266;7.402;2023-02-19T05:46:18;100247.91;;;9.37;89.26
43147;BME280;28752;48.266;7.402;2023-02-19T05:48:46;100242.59;;;9.37;89.42
43147;BME280;28752;48.266;7.402;2023-02-19T05:51:14;100242.22;;;9.30;89.10
43147;BME280;28752;48.266;7.402;2023-02-19T05:53:40;100254.72;;;9.39;88.55
43147;BME280;28752;48.266;7.402;2023-02-19T05:56:39;100257.50;;;9.38;88.79
43147;BME280;28752;48.266;7.402;2023-02-19T05:58:59;100248.97;;;9.34;88.35
43147;BME280;28752;48.266;7.402;2023-02-19T06:01:26;100269.28;;;9.45;87.87
43147;BME280;28752;48.266;7.402;2023-02-19T06:03:53;100270.13;;;9.57;87.41
43147;BME280;28752;48.266;7.402;2023-02-19T06:06:18;100279.72;;;9.47;87.32
43147;BME280;28752;48.266;7.402;2023-02-19T06:08:44;100280.91;;;9.42;87.17
43147;BME280;28752;48.266;7.402;2023-02-19T06:11:10;100276.56;;;9.30;87.60
43147;BME280;28752;48.266;7.402;2023-02-19T06:13:35;100270.94;;;9.35;87.81
43147;BME280;28752;48.266;7.402;2023-02-19T06:16:05;100277.63;;;9.28;88.09
43147;BME280;28752;48.266;7.402;2023-02-19T06:18:31;100287.31;;;9.40;88.19
43147;BME280;28752;48.266;7.402;2023-02-19T06:21:16;100285.97;;;9.34;88.89
43147;BME280;28752;48.266;7.402;2023-02-19T06:23:42;100294.13;;;9.31;89.16
43147;BME280;28752;48.266;7.402;2023-02-19T06:28:39;100293.59;;;9.15;90.78
43147;BME280;28752;48.266;7.402;2023-02-19T06:31:05;100290.25;;;9.13;89.74
43147;BME280;28752;48.266;7.402;2023-02-19T06:33:31;100299.38;;;9.20;89.17
43147;BME280;28752;48.266;7.402;2023-02-19T06:35:58;100296.50;;;9.23;88.88
43147;BME280;28752;48.266;7.402;2023-02-19T06:38:24;100310.44;;;9.25;88.92
43147;BME280;28752;48.266;7.402;2023-02-19T06:40:49;100308.53;;;9.27;88.08
43147;BME280;28752;48.266;7.402;2023-02-19T06:43:15;100310.09;;;9.30;87.16
43147;BME280;28752;48.266;7.402;2023-02-19T06:45:40;100306.81;;;9.26;87.19
43147;BME280;28752;48.266;7.402;2023-02-19T06:48:05;100302.78;;;9.33;85.73
43147;BME280;28752;48.266;7.402;2023-02-19T06:50:30;100307.69;;;9.38;87.71
43147;BME280;28752;48.266;7.402;2023-02-19T06:52:56;100314.81;;;9.37;87.48
43147;BME280;28752;48.266;7.402;2023-02-19T06:55:21;100315.75;;;9.36;87.99
43147;BME280;28752;48.266;7.402;2023-02-19T06:57:46;100304.59;;;9.44;88.51
43147;BME280;28752;48.266;7.402;2023-02-19T07:00:12;100317.09;;;9.42;86.91
43147;BME280;28752;48.266;7.402;2023-02-19T07:02:38;100322.03;;;9.47;85.88
43147;BME280;28752;48.266;7.402;2023-02-19T07:05:03;100325.91;;;9.54;84.80
43147;BME280;28752;48.266;7.402;2023-02-19T07:07:29;100331.06;;;9.55;84.76
43147;BME280;28752;48.266;7.402;2023-02-19T07:09:54;100323.50;;;9.51;86.40
43147;BME280;28752;48.266;7.402;2023-02-19T07:12:19;100335.88;;;9.62;88.70
43147;BME280;28752;48.266;7.402;2023-02-19T07:14:45;100336.59;;;9.64;89.07
43147;BME280;28752;48.266;7.402;2023-02-19T07:17:10;100336.25;;;9.57;88.32
43147;BME280;28752;48.266;7.402;2023-02-19T07:19:35;100328.44;;;9.55;88.69
43147;BME280;28752;48.266;7.402;2023-02-19T07:22:00;100334.22;;;9.72;88.84
43147;BME280;28752;48.266;7.402;2023-02-19T07:24:26;100334.06;;;9.62;89.55
43147;BME280;28752;48.266;7.402;2023-02-19T07:26:51;100336.59;;;9.64;90.15
43147;BME280;28752;48.266;7.402;2023-02-19T07:29:17;100335.66;;;9.65;89.81
43147;BME280;28752;48.266;7.402;2023-02-19T07:31:42;100332.53;;;9.82;88.93
43147;BME280;28752;48.266;7.402;2023-02-19T07:34:10;100345.50;;;9.85;87.83
43147;BME280;28752;48.266;7.402;2023-02-19T07:36:36;100346.25;;;9.87;84.52
43147;BME280;28752;48.266;7.402;2023-02-19T07:39:02;100336.03;;;9.83;86.98
43147;BME280;28752;48.266;7.402;2023-02-19T07:41:27;100349.16;;;9.84;87.22
43147;BME280;28752;48.266;7.402;2023-02-19T07:43:53;100356.47;;;9.92;84.94
43147;BME280;28752;48.266;7.402;2023-02-19T07:46:18;100359.38;;;10.00;84.73
43147;BME280;28752;48.266;7.402;2023-02-19T07:48:44;100365.16;;;10.05;84.07
43147;BME280;28752;48.266;7.402;2023-02-19T07:51:14;100368.25;;;10.22;82.48
43147;BME280;28752;48.266;7.402;2023-02-19T07:53:43;100373.09;;;10.28;80.68
43147;BME280;28752;48.266;7.402;2023-02-19T07:56:10;100378.16;;;10.31;79.62
43147;BME280;28752;48.266;7.402;2023-02-19T07:58:35;100379.38;;;10.38;80.09
43147;BME280;28752;48.266;7.402;2023-02-19T08:01:08;100379.13;;;10.41;79.76
43147;BME280;28752;48.266;7.402;2023-02-19T08:03:34;100380.81;;;10.31;80.87
43147;BME280;28752;48.266;7.402;2023-02-19T08:06:00;100382.25;;;10.24;82.19
43147;BME280;28752;48.266;7.402;2023-02-19T08:08:26;100367.41;;;9.99;83.41
43147;BME280;28752;48.266;7.402;2023-02-19T08:10:51;100390.03;;;10.14;82.88
43147;BME280;28752;48.266;7.402;2023-02-19T08:13:35;100369.47;;;10.06;82.29
43147;BME280;28752;48.266;7.402;2023-02-19T08:18:31;100368.06;;;10.25;80.39
43147;BME280;28752;48.266;7.402;2023-02-19T08:20:57;100380.94;;;10.29;80.29
43147;BME280;28752;48.266;7.402;2023-02-19T08:23:24;100390.81;;;10.39;79.10
43147;BME280;28752;48.266;7.402;2023-02-19T08:25:51;100396.69;;;10.31;79.44
43147;BME280;28752;48.266;7.402;2023-02-19T08:28:17;100398.75;;;10.39;79.52
43147;BME280;28752;48.266;7.402;2023-02-19T08:30:44;100398.25;;;10.34;78.43
43147;BME280;28752;48.266;7.402;2023-02-19T08:33:12;100400.56;;;10.49;77.98
43147;BME280;28752;48.266;7.402;2023-02-19T08:35:38;100414.63;;;10.50;76.65
43147;BME280;28752;48.266;7.402;2023-02-19T08:38:05;100412.69;;;10.52;75.72
43147;BME280;28752;48.266;7.402;2023-02-19T08:40:31;100400.31;;;10.53;74.85
43147;BME280;28752;48.266;7.402;2023-02-19T08:43:02;100395.34;;;10.59;74.57
43147;BME280;28752;48.266;7.402;2023-02-19T08:45:28;100410.63;;;10.67;74.49
43147;BME280;28752;48.266;7.402;2023-02-19T08:47:54;100416.78;;;10.68;73.88
43147;BME280;28752;48.266;7.402;2023-02-19T08:50:19;100419.31;;;10.69;74.39
43147;BME280;28752;48.266;7.402;2023-02-19T08:52:46;100410.63;;;10.67;74.47
43147;BME280;28752;48.266;7.402;2023-02-19T08:55:12;100413.06;;;10.59;73.93
43147;BME280;28752;48.266;7.402;2023-02-19T08:57:38;100411.38;;;10.69;74.12
43147;BME280;28752;48.266;7.402;2023-02-19T09:00:06;100397.75;;;10.62;73.97
43147;BME280;28752;48.266;7.402;2023-02-19T09:02:32;100410.38;;;10.70;74.28
43147;BME280;28752;48.266;7.402;2023-02-19T09:04:57;100420.72;;;10.73;73.54
43147;BME280;28752;48.266;7.402;2023-02-19T09:07:22;100419.06;;;10.61;73.98
43147;BME280;28752;48.266;7.402;2023-02-19T09:09:48;100414.25;;;10.55;73.99
43147;BME280;28752;48.266;7.402;2023-02-19T09:12:13;100414.34;;;10.76;73.53
43147;BME280;28752;48.266;7.402;2023-02-19T09:14:39;100432.41;;;10.82;73.64
43147;BME280;28752;48.266;7.402;2023-02-19T09:17:05;100428.56;;;10.75;73.61
43147;BME280;28752;48.266;7.402;2023-02-19T09:19:31;100430.25;;;10.76;73.03
43147;BME280;28752;48.266;7.402;2023-02-19T09:21:57;100433.13;;;10.84;72.87
43147;BME280;28752;48.266;7.402;2023-02-19T09:24:23;100432.03;;;10.87;72.37
43147;BME280;28752;48.266;7.402;2023-02-19T09:26:49;100425.91;;;10.86;72.15
43147;BME280;28752;48.266;7.402;2023-02-19T09:29:14;100426.38;;;10.91;71.62
43147;BME280;28752;48.266;7.402;2023-02-19T09:31:40;100421.88;;;11.03;71.08
43147;BME280;28752;48.266;7.402;2023-02-19T09:34:05;100416.09;;;11.09;70.61
43147;BME280;28752;48.266;7.402;2023-02-19T09:36:31;100422.59;;;11.05;71.10
43147;BME280;28752;48.266;7.402;2023-02-19T09:38:58;100413.56;;;11.08;70.19
43147;BME280;28752;48.266;7.402;2023-02-19T09:43:50;100420.47;;;11.31;70.53
43147;BME280;28752;48.266;7.402;2023-02-19T09:46:27;100410.72;;;11.32;69.53
43147;BME280;28752;48.266;7.402;2023-02-19T09:49:43;100416.69;;;11.45;69.84
43147;BME280;28752;48.266;7.402;2023-02-19T09:51:45;100425.19;;;11.60;68.90
43147;BME280;28752;48.266;7.402;2023-02-19T09:54:37;100427.97;;;11.80;68.07
43147;BME280;28752;48.266;7.402;2023-02-19T09:57:02;100422.41;;;12.04;67.15
43147;BME280;28752;48.266;7.402;2023-02-19T09:59:36;100420.91;;;12.11;66.15
43147;BME280;28752;48.266;7.402;2023-02-19T10:02:13;100421.94;;;12.20;66.60
43147;BME280;28752;48.266;7.402;2023-02-19T10:04:41;100420.88;;;12.32;65.56
43147;BME280;28752;48.266;7.402;2023-02-19T10:07:18;100429.03;;;12.40;64.69
43147;BME280;28752;48.266;7.402;2023-02-19T10:09:57;100429.16;;;12.79;63.70
43147;BME280;28752;48.266;7.402;2023-02-19T10:12:29;100430.56;;;12.84;63.98
43147;BME280;28752;48.266;7.402;2023-02-19T10:15:31;100431.59;;;12.92;63.15
43147;BME280;28752;48.266;7.402;2023-02-19T10:17:55;100437.81;;;12.72;63.03
43147;BME280;28752;48.266;7.402;2023-02-19T10:20:23;100446.47;;;12.64;62.87
43147;BME280;28752;48.266;7.402;2023-02-19T10:23:03;100455.38;;;12.53;62.73
43147;BME280;28752;48.266;7.402;2023-02-19T10:25:31;100459.22;;;12.39;62.17
43147;BME280;28752;48.266;7.402;2023-02-19T10:27:58;100466.13;;;12.21;63.12
43147;BME280;28752;48.266;7.402;2023-02-19T10:30:27;100474.34;;;12.18;63.91
43147;BME280;28752;48.266;7.402;2023-02-19T10:33:03;100483.59;;;12.02;63.33
43147;BME280;28752;48.266;7.402;2023-02-19T10:35:35;100493.50;;;12.00;65.21
43147;BME280;28752;48.266;7.402;2023-02-19T10:38:03;100495.78;;;12.05;64.13
43147;BME280;28752;48.266;7.402;2023-02-19T10:40:31;100508.78;;;12.08;65.49
43147;BME280;28752;48.266;7.402;2023-02-19T10:43:00;100503.81;;;11.82;65.76
43147;BME280;28752;48.266;7.402;2023-02-19T10:45:47;100501.78;;;12.07;65.79
43147;BME280;28752;48.266;7.402;2023-02-19T10:48:27;100500.56;;;12.11;64.84
43147;BME280;28752;48.266;7.402;2023-02-19T10:50:56;100486.38;;;12.01;65.70
43147;BME280;28752;48.266;7.402;2023-02-19T10:53:45;100498.38;;;12.16;66.47
43147;BME280;28752;48.266;7.402;2023-02-19T10:56:21;100507.81;;;12.09;65.86
43147;BME280;28752;48.266;7.402;2023-02-19T10:58:48;100499.91;;;11.98;66.30
43147;BME280;28752;48.266;7.402;2023-02-19T11:01:16;100509.22;;;11.92;65.81
43147;BME280;28752;48.266;7.402;2023-02-19T11:03:44;100511.44;;;12.08;65.72
43147;BME280;28752;48.266;7.402;2023-02-19T11:06:12;100512.53;;;12.26;65.76
43147;BME280;28752;48.266;7.402;2023-02-19T11:08:51;100506.59;;;12.13;65.03
43147;BME280;28752;48.266;7.402;2023-02-19T11:13:48;100494.94;;;12.56;63.51
43147;BME280;28752;48.266;7.402;2023-02-19T11:16:14;100500.56;;;12.63;63.75
43147;BME280;28752;48.266;7.402;2023-02-19T11:18:39;100492.66;;;12.42;64.05
43147;BME280;28752;48.266;7.402;2023-02-19T11:21:23;100486.88;;;12.68;64.49
43147;BME280;28752;48.266;7.402;2023-02-19T11:23:49;100478.34;;;12.64;62.69
43147;BME280;28752;48.266;7.402;2023-02-19T11:26:18;100482.09;;;12.61;62.54
43147;BME280;28752;48.266;7.402;2023-02-19T11:28:45;100474.31;;;12.70;61.40
43147;BME280;28752;48.266;7.402;2023-02-19T11:33:52;100454.97;;;12.98;61.37
43147;BME280;28752;48.266;7.402;2023-02-19T11:38:51;100446.44;;;13.05;61.06
43147;BME280;28752;48.266;7.402;2023-02-19T11:41:28;100465.31;;;13.11;60.54
43147;BME280;28752;48.266;7.402;2023-02-19T11:46:58;100458.63;;;13.27;59.90
43147;BME280;28752;48.266;7.402;2023-02-19T11:49:49;100449.09;;;13.14;58.84
43147;BME280;28752;48.266;7.402;2023-02-19T11:54:59;100461.16;;;13.19;58.49
43147;BME280;28752;48.266;7.402;2023-02-19T11:57:45;100457.81;;;13.17;57.35
43147;BME280;28752;48.266;7.402;2023-02-19T12:00:25;100443.78;;;13.05;58.02
43147;BME280;28752;48.266;7.402;2023-02-19T12:11:10;100458.84;;;12.85;59.43
43147;BME280;28752;48.266;7.402;2023-02-19T12:16:28;100463.56;;;12.71;60.64
43147;BME280;28752;48.266;7.402;2023-02-19T12:27:34;100465.63;;;13.18;59.15
43147;BME280;28752;48.266;7.402;2023-02-19T12:33:25;100472.78;;;13.27;58.60
43147;BME280;28752;48.266;7.402;2023-02-19T12:36:22;100465.22;;;13.32;58.34
43147;BME280;28752;48.266;7.402;2023-02-19T12:41:18;100462.22;;;12.96;59.31
43147;BME280;28752;48.266;7.402;2023-02-19T12:44:18;100458.56;;;12.88;59.23
43147;BME280;28752;48.266;7.402;2023-02-19T12:46:51;100447.81;;;12.89;59.26
43147;BME280;28752;48.266;7.402;2023-02-19T12:49:41;100436.97;;;12.71;59.48
43147;BME280;28752;48.266;7.402;2023-02-19T12:52:20;100440.03;;;12.67;60.27
43147;BME280;28752;48.266;7.402;2023-02-19T12:54:51;100427.03;;;12.64;60.41
43147;BME280;28752;48.266;7.402;2023-02-19T12:57:22;100455.44;;;12.73;59.77
43147;BME280;28752;48.266;7.402;2023-02-19T13:10:54;100422.53;;;13.24;57.81
43147;BME280;28752;48.266;7.402;2023-02-19T13:13:25;100442.41;;;13.30;57.93
43147;BME280;28752;48.266;7.402;2023-02-19T13:15:55;100451.41;;;13.39;57.29
43147;BME280;28752;48.266;7.402;2023-02-19T13:18:33;100449.03;;;13.45;56.65
43147;BME280;28752;48.266;7.402;2023-02-19T13:21:01;100461.19;;;13.48;57.55
43147;BME280;28752;48.266;7.402;2023-02-19T13:23:37;100453.63;;;13.43;55.68
43147;BME280;28752;48.266;7.402;2023-02-19T13:34:39;100432.03;;;13.17;56.45
43147;BME280;28752;48.266;7.402;2023-02-19T13:37:09;100440.28;;;13.04;57.00
43147;BME280;28752;48.266;7.402;2023-02-19T13:39:35;100448.91;;;12.96;57.07
43147;BME280;28752;48.266;7.402;2023-02-19T13:42:01;100439.38;;;12.74;56.57
43147;BME280;28752;48.266;7.402;2023-02-19T13:44:29;100453.47;;;12.75;57.20
43147;BME280;28752;48.266;7.402;2023-02-19T13:46:55;100448.28;;;12.64;56.73
43147;BME280;28752;48.266;7.402;2023-02-19T13:51:55;100447.41;;;12.53;57.72
43147;BME280;28752;48.266;7.402;2023-02-19T13:56:47;100445.75;;;12.62;57.47
43147;BME280;28752;48.266;7.402;2023-02-19T13:59:34;100428.41;;;12.58;57.50
43147;BME280;28752;48.266;7.402;2023-02-19T14:05:07;100434.94;;;12.54;56.60
43147;BME280;28752;48.266;7.402;2023-02-19T14:10:04;100439.44;;;12.53;56.99
43147;BME280;28752;48.266;7.402;2023-02-19T14:12:35;100438.00;;;12.49;58.13
43147;BME280;28752;48.266;7.402;2023-02-19T14:15:39;100423.78;;;12.60;57.72
43147;BME280;28752;48.266;7.402;2023-02-19T14:18:43;100426.50;;;12.39;58.27
43147;BME280;28752;48.266;7.402;2023-02-19T14:21:22;100423.50;;;12.22;58.88
43147;BME280;28752;48.266;7.402;2023-02-19T14:23:52;100422.38;;;12.25;59.33
43147;BME280;28752;48.266;7.402;2023-02-19T14:26:20;100414.38;;;12.15;59.24
43147;BME280;28752;48.266;7.402;2023-02-19T14:28:50;100440.13;;;12.24;58.93
43147;BME280;28752;48.266;7.402;2023-02-19T14:31:27;100442.34;;;12.19;59.17
43147;BME280;28752;48.266;7.402;2023-02-19T14:34:20;100439.09;;;12.16;59.52
43147;BME280;28752;48.266;7.402;2023-02-19T14:36:52;100436.28;;;12.07;60.03
43147;BME280;28752;48.266;7.402;2023-02-19T14:39:21;100424.22;;;12.03;59.17
43147;BME280;28752;48.266;7.402;2023-02-19T14:41:52;100439.50;;;12.11;59.96
43147;BME280;28752;48.266;7.402;2023-02-19T14:44:21;100441.91;;;12.14;60.32
43147;BME280;28752;48.266;7.402;2023-02-19T14:49:40;100439.84;;;12.18;58.99
43147;BME280;28752;48.266;7.402;2023-02-19T14:52:13;100434.25;;;12.21;59.62
43147;BME280;28752;48.266;7.402;2023-02-19T14:57:17;100421.50;;;12.15;58.44
43147;BME280;28752;48.266;7.402;2023-02-19T15:00:00;100414.94;;;12.19;59.02